createdAt,value
2023-02-13T00:00:39.051Z,20.70
2023-02-13T00:01:39.020Z,19.70
2023-02-13T00:02:39.086Z,20.20
2023-02-13T00:03:39.028Z,20.70
2023-02-13T00:04:38.955Z,20.30
2023-02-13T00:05:38.917Z,20.00
2023-02-13T00:06:38.910Z,20.80
2023-02-13T00:07:38.869Z,20.40
2023-02-13T00:08:38.839Z,21.50
2023-02-13T00:09:38.816Z,21.30
2023-02-13T00:10:38.795Z,19.90
2023-02-13T00:11:38.764Z,22.30
2023-02-13T00:12:38.761Z,19.70
2023-02-13T00:13:38.714Z,20.70
2023-02-13T00:14:38.700Z,19.50
2023-02-13T00:15:38.727Z,21.30
2023-02-13T00:16:38.642Z,20.50
2023-02-13T00:17:38.613Z,20.50
2023-02-13T00:18:38.589Z,20.00
2023-02-13T00:19:38.560Z,22.20
2023-02-13T00:20:38.543Z,21.20
2023-02-13T00:21:38.511Z,20.50
2023-02-13T00:22:38.492Z,21.30
2023-02-13T00:23:38.461Z,21.70
2023-02-13T00:24:38.435Z,21.70
2023-02-13T00:25:38.408Z,20.80
2023-02-13T00:26:38.388Z,19.90
2023-02-13T00:27:38.363Z,20.70
2023-02-13T00:28:38.465Z,20.80
2023-02-13T00:29:38.305Z,22.70
2023-02-13T00:30:38.279Z,22.20
2023-02-13T00:31:38.497Z,21.60
2023-02-13T00:32:38.232Z,23.10
2023-02-13T00:33:38.207Z,24.10
2023-02-13T00:34:38.198Z,23.10
2023-02-13T00:35:38.160Z,21.70
2023-02-13T00:36:38.153Z,22.70
2023-02-13T00:37:38.104Z,23.70
2023-02-13T00:38:38.080Z,23.10
2023-02-13T00:39:38.072Z,23.30
2023-02-13T00:40:38.037Z,22.70
2023-02-13T00:41:37.997Z,21.70
2023-02-13T00:42:37.975Z,22.80
2023-02-13T00:43:37.947Z,22.40
2023-02-13T00:44:37.952Z,22.20
2023-02-13T00:45:37.897Z,22.50
2023-02-13T00:46:37.925Z,23.10
2023-02-13T00:47:37.849Z,22.90
2023-02-13T00:48:37.824Z,22.30
2023-02-13T00:49:37.803Z,22.90
2023-02-13T00:50:37.776Z,23.20
2023-02-13T00:51:37.748Z,23.00
2023-02-13T00:52:37.732Z,22.60
2023-02-13T00:53:37.706Z,23.40
2023-02-13T00:54:37.674Z,22.80
2023-02-13T00:55:37.654Z,22.80
2023-02-13T00:56:37.623Z,24.50
2023-02-13T00:57:37.601Z,23.70
2023-02-13T00:58:37.658Z,22.40
2023-02-13T00:59:37.544Z,23.20
2023-02-13T01:00:37.546Z,22.60
2023-02-13T01:01:37.673Z,23.10
2023-02-13T01:02:37.484Z,21.10
2023-02-13T01:03:37.448Z,22.40
2023-02-13T01:04:37.430Z,22.30
2023-02-13T01:05:37.399Z,22.30
2023-02-13T01:06:37.371Z,22.50
2023-02-13T01:07:37.348Z,23.10
2023-02-13T01:08:37.317Z,22.10
2023-02-13T01:09:37.295Z,21.50
2023-02-13T01:10:37.271Z,22.20
2023-02-13T01:11:37.239Z,22.30
2023-02-13T01:12:37.230Z,21.50
2023-02-13T01:13:37.193Z,22.70
2023-02-13T01:14:37.204Z,22.00
2023-02-13T01:15:37.286Z,22.40
2023-02-13T01:16:37.146Z,22.10
2023-02-13T01:17:37.092Z,21.20
2023-02-13T01:18:37.082Z,22.30
2023-02-13T01:19:37.044Z,22.30
2023-02-13T01:20:37.014Z,21.70
2023-02-13T01:21:36.989Z,22.10
2023-02-13T01:22:36.968Z,21.80
2023-02-13T01:23:36.938Z,22.90
2023-02-13T01:24:36.946Z,21.60
2023-02-13T01:25:36.892Z,21.10
2023-02-13T01:26:36.868Z,21.80
2023-02-13T01:27:36.841Z,22.60
2023-02-13T01:28:36.921Z,22.20
2023-02-13T01:29:36.802Z,20.60
2023-02-13T01:30:36.777Z,21.60
2023-02-13T01:31:36.924Z,21.40
2023-02-13T01:32:36.739Z,20.70
2023-02-13T01:33:36.692Z,21.40
2023-02-13T01:34:36.666Z,21.80
2023-02-13T01:35:36.635Z,20.50
2023-02-13T01:36:36.617Z,19.70
2023-02-13T01:37:36.577Z,21.40
2023-02-13T01:38:36.558Z,20.90
2023-02-13T01:39:36.542Z,20.70
2023-02-13T01:40:36.510Z,20.60
2023-02-13T01:41:36.478Z,21.70
2023-02-13T01:42:36.458Z,19.90
2023-02-13T01:43:36.430Z,21.10
2023-02-13T01:44:36.406Z,20.40
2023-02-13T01:45:36.377Z,19.30
2023-02-13T01:46:36.430Z,20.60
2023-02-13T01:47:36.328Z,21.60
2023-02-13T01:48:36.328Z,21.60
2023-02-13T01:49:36.275Z,20.10
2023-02-13T01:50:36.255Z,20.60
2023-02-13T01:51:36.223Z,20.00
2023-02-13T01:52:36.204Z,20.70
2023-02-13T01:53:36.173Z,20.00
2023-02-13T01:54:36.155Z,20.00
2023-02-13T01:55:36.121Z,18.80
2023-02-13T01:56:36.101Z,20.70
2023-02-13T01:57:36.072Z,19.80
2023-02-13T01:58:36.052Z,20.10
2023-02-13T01:59:36.017Z,19.50
2023-02-13T02:00:35.996Z,19.10
2023-02-13T02:01:36.015Z,19.80
2023-02-13T02:02:36.020Z,19.20
2023-02-13T02:03:35.919Z,18.30
2023-02-13T02:04:35.978Z,19.70
2023-02-13T02:05:35.865Z,19.70
2023-02-13T02:06:35.847Z,18.50
2023-02-13T02:07:35.814Z,19.20
2023-02-13T02:08:35.792Z,19.20
2023-02-13T02:09:35.775Z,19.20
2023-02-13T02:10:35.771Z,17.10
2023-02-13T02:11:35.716Z,17.10
2023-02-13T02:12:35.701Z,17.80
2023-02-13T02:13:35.687Z,17.30
2023-02-13T02:14:35.643Z,17.00
2023-02-13T02:15:35.629Z,16.90
2023-02-13T02:16:35.600Z,17.00
2023-02-13T02:17:35.567Z,17.00
2023-02-13T02:18:35.538Z,17.20
2023-02-13T02:19:35.515Z,18.10
2023-02-13T02:20:35.512Z,17.50
2023-02-13T02:21:35.466Z,17.90
2023-02-13T02:22:35.438Z,17.10
2023-02-13T02:23:35.415Z,17.70
2023-02-13T02:24:35.393Z,16.70
2023-02-13T02:25:35.365Z,16.00
2023-02-13T02:26:35.349Z,16.20
2023-02-13T02:27:35.330Z,17.40
2023-02-13T02:28:35.364Z,16.10
2023-02-13T02:29:35.268Z,16.00
2023-02-13T02:30:35.283Z,16.00
2023-02-13T02:31:35.271Z,16.30
2023-02-13T02:32:35.193Z,15.90
2023-02-13T02:33:35.162Z,17.10
2023-02-13T02:34:35.133Z,16.40
2023-02-13T02:35:35.113Z,15.80
2023-02-13T02:36:35.112Z,17.50
2023-02-13T02:37:35.079Z,16.00
2023-02-13T02:38:35.046Z,15.50
2023-02-13T02:39:35.010Z,15.70
2023-02-13T02:40:34.981Z,15.80
2023-02-13T02:41:34.987Z,15.40
2023-02-13T02:42:34.954Z,15.60
2023-02-13T02:43:34.907Z,14.40
2023-02-13T02:44:34.886Z,16.50
2023-02-13T02:45:34.854Z,15.90
2023-02-13T02:46:34.832Z,15.10
2023-02-13T02:47:34.811Z,16.30
2023-02-13T02:48:34.778Z,15.20
2023-02-13T02:49:34.748Z,14.30
2023-02-13T02:50:34.728Z,15.40
2023-02-13T02:51:34.697Z,14.10
2023-02-13T02:52:34.702Z,14.70
2023-02-13T02:53:34.644Z,14.60
2023-02-13T02:54:34.638Z,15.30
2023-02-13T02:55:34.593Z,15.10
2023-02-13T02:56:34.574Z,14.70
2023-02-13T02:57:34.548Z,15.20
2023-02-13T02:58:34.524Z,15.60
2023-02-13T02:59:34.503Z,15.40
2023-02-13T03:00:34.497Z,14.50
2023-02-13T03:01:34.452Z,14.70
2023-02-13T03:02:34.417Z,14.80
2023-02-13T03:03:34.405Z,15.00
2023-02-13T03:04:34.449Z,15.20
2023-02-13T03:05:34.343Z,14.50
2023-02-13T03:06:34.311Z,14.10
2023-02-13T03:07:34.288Z,14.40
2023-02-13T03:08:34.286Z,13.80
2023-02-13T03:09:34.237Z,14.30
2023-02-13T03:10:34.215Z,15.70
2023-02-13T03:11:34.189Z,14.20
2023-02-13T03:12:34.165Z,14.60
2023-02-13T03:13:34.135Z,16.60
2023-02-13T03:14:34.108Z,15.60
2023-02-13T03:15:34.088Z,13.90
2023-02-13T03:16:34.148Z,14.00
2023-02-13T03:17:34.039Z,13.80
2023-02-13T03:18:34.006Z,14.10
2023-02-13T03:19:33.985Z,15.70
2023-02-13T03:20:33.957Z,13.50
2023-02-13T03:21:33.937Z,15.20
2023-02-13T03:22:33.903Z,15.30
2023-02-13T03:23:33.882Z,12.90
2023-02-13T03:24:33.878Z,14.30
2023-02-13T03:25:33.835Z,14.30
2023-02-13T03:26:33.801Z,14.30
2023-02-13T03:27:33.786Z,13.90
2023-02-13T03:28:33.799Z,13.90
2023-02-13T03:29:33.728Z,14.10
2023-02-13T03:30:33.762Z,15.60
2023-02-13T03:31:33.700Z,13.80
2023-02-13T03:32:33.652Z,12.90
2023-02-13T03:33:33.626Z,13.90
2023-02-13T03:34:33.596Z,13.50
2023-02-13T03:35:33.579Z,13.30
2023-02-13T03:36:33.545Z,13.90
2023-02-13T03:37:33.527Z,14.80
2023-02-13T03:38:33.501Z,14.80
2023-02-13T03:39:33.470Z,13.50
2023-02-13T03:40:33.468Z,13.30
2023-02-13T03:41:33.426Z,12.90
2023-02-13T03:42:33.407Z,13.50
2023-02-13T03:43:33.369Z,13.90
2023-02-13T03:44:33.345Z,14.10
2023-02-13T03:45:33.373Z,14.20
2023-02-13T03:46:33.290Z,14.40
2023-02-13T03:47:33.274Z,12.30
2023-02-13T03:48:33.245Z,13.30
2023-02-13T03:49:33.226Z,13.10
2023-02-13T03:50:33.192Z,12.90
2023-02-13T03:51:33.167Z,13.70
2023-02-13T03:52:33.142Z,13.10
2023-02-13T03:53:33.116Z,12.90
2023-02-13T03:54:33.089Z,12.20
2023-02-13T03:55:33.067Z,14.00
2023-02-13T03:56:33.056Z,13.80
2023-02-13T03:57:33.016Z,12.90
2023-02-13T03:58:32.984Z,14.00
2023-02-13T03:59:32.961Z,13.90
2023-02-13T04:00:32.939Z,13.90
2023-02-13T04:01:32.969Z,13.20
2023-02-13T04:02:32.971Z,13.60
2023-02-13T04:03:32.867Z,13.70
2023-02-13T04:04:32.829Z,13.40
2023-02-13T04:05:32.811Z,13.20
2023-02-13T04:06:32.780Z,12.80
2023-02-13T04:07:32.764Z,12.50
2023-02-13T04:08:32.730Z,13.70
2023-02-13T04:09:32.710Z,12.60
2023-02-13T04:10:32.679Z,13.30
2023-02-13T04:11:32.657Z,14.10
2023-02-13T04:12:32.655Z,14.00
2023-02-13T04:13:32.609Z,14.10
2023-02-13T04:14:32.578Z,13.80
2023-02-13T04:15:32.561Z,15.10
2023-02-13T04:16:32.564Z,13.60
2023-02-13T04:17:32.511Z,13.80
2023-02-13T04:18:32.477Z,12.80
2023-02-13T04:19:32.452Z,13.80
2023-02-13T04:20:32.428Z,12.90
2023-02-13T04:21:32.409Z,13.50
2023-02-13T04:22:32.371Z,12.50
2023-02-13T04:23:32.356Z,12.40
2023-02-13T04:24:32.326Z,14.20
2023-02-13T04:25:32.300Z,14.60
2023-02-13T04:26:32.277Z,14.50
2023-02-13T04:27:32.255Z,13.30
2023-02-13T04:28:32.309Z,14.40
2023-02-13T04:29:32.202Z,13.50
2023-02-13T04:30:32.183Z,14.00
2023-02-13T04:31:32.254Z,12.30
2023-02-13T04:32:32.118Z,12.80
2023-02-13T04:33:32.097Z,12.30
2023-02-13T04:34:32.068Z,13.80
2023-02-13T04:35:32.051Z,13.30
2023-02-13T04:36:32.023Z,13.60
2023-02-13T04:37:31.997Z,14.80
2023-02-13T04:38:31.969Z,12.80
2023-02-13T04:39:31.951Z,13.00
2023-02-13T04:40:31.921Z,15.80
2023-02-13T04:41:31.893Z,14.90
2023-02-13T04:42:31.870Z,13.10
2023-02-13T04:43:31.843Z,14.00
2023-02-13T04:44:31.844Z,14.20
2023-02-13T04:45:31.802Z,14.70
2023-02-13T04:46:31.770Z,13.60
2023-02-13T04:47:31.741Z,12.90
2023-02-13T04:48:31.710Z,13.50
2023-02-13T04:49:31.688Z,13.60
2023-02-13T04:50:31.666Z,12.30
2023-02-13T04:51:31.643Z,12.20
2023-02-13T04:52:31.611Z,14.80
2023-02-13T04:53:31.584Z,13.60
2023-02-13T04:54:31.564Z,13.50
2023-02-13T04:55:31.539Z,14.00
2023-02-13T04:56:31.517Z,13.00
2023-02-13T04:57:31.484Z,14.90
2023-02-13T04:58:31.458Z,13.50
2023-02-13T04:59:31.441Z,13.50
2023-02-13T05:00:31.432Z,12.80
2023-02-13T05:01:31.444Z,13.30
2023-02-13T05:02:31.356Z,13.30
2023-02-13T05:03:31.335Z,13.00
2023-02-13T05:04:31.400Z,12.90
2023-02-13T05:05:31.283Z,13.80
2023-02-13T05:06:31.255Z,13.20
2023-02-13T05:07:31.233Z,12.80
2023-02-13T05:08:31.199Z,13.00
2023-02-13T05:09:31.180Z,13.20
2023-02-13T05:10:31.148Z,13.20
2023-02-13T05:11:31.136Z,13.40
2023-02-13T05:12:31.095Z,14.10
2023-02-13T05:13:31.078Z,14.90
2023-02-13T05:14:31.052Z,12.60
2023-02-13T05:15:31.083Z,13.00
2023-02-13T05:16:31.023Z,14.80
2023-02-13T05:17:30.975Z,13.10
2023-02-13T05:18:30.950Z,13.90
2023-02-13T05:19:30.927Z,14.80
2023-02-13T05:20:30.911Z,14.00
2023-02-13T05:21:30.872Z,13.80
2023-02-13T05:22:30.854Z,13.70
2023-02-13T05:23:30.826Z,13.30
2023-02-13T05:24:30.792Z,13.40
2023-02-13T05:25:30.770Z,13.40
2023-02-13T05:26:30.739Z,13.70
2023-02-13T05:27:30.720Z,13.60
2023-02-13T05:28:30.780Z,14.00
2023-02-13T05:29:30.682Z,12.80
2023-02-13T05:30:30.641Z,15.40
2023-02-13T05:31:30.764Z,13.50
2023-02-13T05:32:30.618Z,13.80
2023-02-13T05:33:30.599Z,14.60
2023-02-13T05:34:30.538Z,13.70
2023-02-13T05:35:30.514Z,13.20
2023-02-13T05:36:30.492Z,13.30
2023-02-13T05:37:30.470Z,14.40
2023-02-13T05:38:30.444Z,13.90
2023-02-13T05:39:30.415Z,14.70
2023-02-13T05:40:30.388Z,14.10
2023-02-13T05:41:30.382Z,14.30
2023-02-13T05:42:30.340Z,12.80
2023-02-13T05:43:30.312Z,12.00
2023-02-13T05:44:30.284Z,13.60
2023-02-13T05:45:30.272Z,13.50
2023-02-13T05:46:30.274Z,14.20
2023-02-13T05:47:30.220Z,13.50
2023-02-13T05:48:30.280Z,14.50
2023-02-13T05:49:30.167Z,13.20
2023-02-13T05:50:30.139Z,13.60
2023-02-13T05:51:30.111Z,14.90
2023-02-13T05:52:30.082Z,13.80
2023-02-13T05:53:30.060Z,13.80
2023-02-13T05:54:30.035Z,13.90
2023-02-13T05:55:30.011Z,14.40
2023-02-13T05:56:29.983Z,13.80
2023-02-13T05:57:29.963Z,14.20
2023-02-13T05:58:29.928Z,13.10
2023-02-13T05:59:29.903Z,15.30
2023-02-13T06:00:29.871Z,13.90
2023-02-13T06:01:29.858Z,13.60
2023-02-13T06:02:29.862Z,13.70
2023-02-13T06:03:29.858Z,14.30
2023-02-13T06:04:29.796Z,15.50
2023-02-13T06:05:29.757Z,14.30
2023-02-13T06:06:29.722Z,14.30
2023-02-13T06:07:29.708Z,13.40
2023-02-13T06:08:29.668Z,14.60
2023-02-13T06:09:29.649Z,15.60
2023-02-13T06:10:29.618Z,14.20
2023-02-13T06:11:29.617Z,13.10
2023-02-13T06:12:29.568Z,14.40
2023-02-13T06:13:29.550Z,13.60
2023-02-13T06:14:29.519Z,14.40
2023-02-13T06:15:29.497Z,13.50
2023-02-13T06:16:29.463Z,14.70
2023-02-13T06:17:29.444Z,13.80
2023-02-13T06:18:29.420Z,13.00
2023-02-13T06:19:29.390Z,13.80
2023-02-13T06:20:29.430Z,13.60
2023-02-13T06:21:29.337Z,13.70
2023-02-13T06:22:29.308Z,13.30
2023-02-13T06:23:29.287Z,14.20
2023-02-13T06:24:29.261Z,14.20
2023-02-13T06:25:29.239Z,14.10
2023-02-13T06:26:29.205Z,12.60
2023-02-13T06:27:29.190Z,13.60
2023-02-13T06:28:29.247Z,13.00
2023-02-13T06:29:29.133Z,13.70
2023-02-13T06:30:29.126Z,13.00
2023-02-13T06:31:29.240Z,15.40
2023-02-13T06:32:29.055Z,14.40
2023-02-13T06:33:29.033Z,13.60
2023-02-13T06:34:29.001Z,14.50
2023-02-13T06:35:28.982Z,13.00
2023-02-13T06:36:28.983Z,14.50
2023-02-13T06:37:28.935Z,13.30
2023-02-13T06:38:28.902Z,17.00
2023-02-13T06:39:28.881Z,13.00
2023-02-13T06:40:28.853Z,13.80
2023-02-13T06:41:28.827Z,14.80
2023-02-13T06:42:28.796Z,14.80
2023-02-13T06:43:28.776Z,13.00
2023-02-13T06:44:28.747Z,13.30
2023-02-13T06:45:28.732Z,12.80
2023-02-13T06:46:28.825Z,14.20
2023-02-13T06:47:28.683Z,14.20
2023-02-13T06:48:28.641Z,14.20
2023-02-13T06:49:28.626Z,12.90
2023-02-13T06:50:28.591Z,14.00
2023-02-13T06:51:28.573Z,13.10
2023-02-13T06:52:28.572Z,13.20
2023-02-13T06:53:28.517Z,12.90
2023-02-13T06:54:44.708Z,12.80
2023-02-13T06:55:28.468Z,13.60
2023-02-13T06:56:28.445Z,15.30
2023-02-13T06:57:28.419Z,12.70
2023-02-13T06:58:28.389Z,12.80
2023-02-13T06:59:28.362Z,13.80
2023-02-13T07:00:28.365Z,12.60
2023-02-13T07:01:28.423Z,14.00
2023-02-13T07:02:28.297Z,13.30
2023-02-13T07:03:28.267Z,14.40
2023-02-13T07:04:28.239Z,14.70
2023-02-13T07:05:28.215Z,13.80
2023-02-13T07:06:28.189Z,14.20
2023-02-13T07:07:28.162Z,14.90
2023-02-13T07:08:28.167Z,14.20
2023-02-13T07:09:28.115Z,15.30
2023-02-13T07:10:28.080Z,14.60
2023-02-13T07:11:28.061Z,14.60
2023-02-13T07:12:28.040Z,14.20
2023-02-13T07:13:28.014Z,15.20
2023-02-13T07:14:27.984Z,17.00
2023-02-13T07:15:27.957Z,17.70
2023-02-13T07:16:28.005Z,17.00
2023-02-13T07:17:27.908Z,16.20
2023-02-13T07:18:27.882Z,15.80
2023-02-13T07:19:27.872Z,16.80
2023-02-13T07:20:27.837Z,16.40
2023-02-13T07:21:27.805Z,17.80
2023-02-13T07:22:27.805Z,17.10
2023-02-13T07:23:27.765Z,15.70
2023-02-13T07:24:27.801Z,16.10
2023-02-13T07:25:27.705Z,16.20
2023-02-13T07:26:27.723Z,16.60
2023-02-13T07:27:27.650Z,16.20
2023-02-13T07:28:27.713Z,14.60
2023-02-13T07:29:27.607Z,15.00
2023-02-13T07:30:27.704Z,16.80
2023-02-13T07:31:27.720Z,14.80
2023-02-13T07:32:27.525Z,14.80
2023-02-13T07:33:27.500Z,14.90
2023-02-13T07:34:27.495Z,15.40
2023-02-13T07:35:27.448Z,15.10
2023-02-13T07:36:27.419Z,14.90
2023-02-13T07:37:27.395Z,15.20
2023-02-13T07:38:27.375Z,14.70
2023-02-13T07:39:27.346Z,14.90
2023-02-13T07:40:27.347Z,15.10
2023-02-13T07:41:27.290Z,15.20
2023-02-13T07:42:27.281Z,15.90
2023-02-13T07:43:27.251Z,16.20
2023-02-13T07:44:27.219Z,15.70
2023-02-13T07:45:27.199Z,15.40
2023-02-13T07:46:27.187Z,15.80
2023-02-13T07:47:27.144Z,16.30
2023-02-13T07:48:27.126Z,15.00
2023-02-13T07:49:27.107Z,16.00
2023-02-13T07:50:27.073Z,15.60
2023-02-13T07:51:27.045Z,15.30
2023-02-13T07:52:27.017Z,15.30
2023-02-13T07:53:26.988Z,16.30
2023-02-13T07:54:26.968Z,15.10
2023-02-13T07:55:26.942Z,15.00
2023-02-13T07:56:26.946Z,15.20
2023-02-13T07:57:26.889Z,15.00
2023-02-13T07:58:26.889Z,15.40
2023-02-13T07:59:26.838Z,15.80
2023-02-13T08:00:26.818Z,13.60
2023-02-13T08:01:26.835Z,14.60
2023-02-13T08:02:26.767Z,13.80
2023-02-13T08:03:26.776Z,14.60
2023-02-13T08:04:26.720Z,15.90
2023-02-13T08:05:26.691Z,15.30
2023-02-13T08:06:26.687Z,14.40
2023-02-13T08:07:26.643Z,15.00
2023-02-13T08:08:26.618Z,14.90
2023-02-13T08:09:26.584Z,14.30
2023-02-13T08:10:26.568Z,15.80
2023-02-13T08:11:26.526Z,16.90
2023-02-13T08:12:26.554Z,16.40
2023-02-13T08:13:26.488Z,17.20
2023-02-13T08:14:26.456Z,17.20
2023-02-13T08:15:26.428Z,18.90
2023-02-13T08:16:26.465Z,18.60
2023-02-13T08:17:26.374Z,19.60
2023-02-13T08:18:26.348Z,19.80
2023-02-13T08:19:26.324Z,20.50
2023-02-13T08:20:26.306Z,21.90
2023-02-13T08:21:26.304Z,21.40
2023-02-13T08:22:26.249Z,21.00
2023-02-13T08:23:26.285Z,20.80
2023-02-13T08:24:26.199Z,19.30
2023-02-13T08:25:26.169Z,19.90
2023-02-13T08:26:26.147Z,18.70
2023-02-13T08:27:26.114Z,18.20
2023-02-13T08:28:26.145Z,16.20
2023-02-13T08:29:26.238Z,17.50
2023-02-13T08:30:26.045Z,17.90
2023-02-13T08:31:26.177Z,17.10
2023-02-13T08:32:26.103Z,17.20
2023-02-13T08:33:25.964Z,18.00
2023-02-13T08:34:25.941Z,19.60
2023-02-13T08:35:25.930Z,18.20
2023-02-13T08:36:25.902Z,18.70
2023-02-13T08:37:25.861Z,17.80
2023-02-13T08:38:26.410Z,17.00
2023-02-13T08:39:25.819Z,17.50
2023-02-13T08:40:26.088Z,16.60
2023-02-13T08:41:25.756Z,16.50
2023-02-13T08:42:25.741Z,17.10
2023-02-13T08:43:25.710Z,16.60
2023-02-13T08:44:25.710Z,16.40
2023-02-13T08:45:25.657Z,16.70
2023-02-13T08:46:25.700Z,17.30
2023-02-13T08:47:25.604Z,18.20
2023-02-13T08:48:25.585Z,17.30
2023-02-13T08:49:25.555Z,19.10
2023-02-13T08:50:25.619Z,18.80
2023-02-13T08:51:25.532Z,18.40
2023-02-13T08:52:25.482Z,18.20
2023-02-13T08:53:25.451Z,20.20
2023-02-13T08:54:25.432Z,19.10
2023-02-13T08:55:25.408Z,20.30
2023-02-13T08:56:25.379Z,20.70
2023-02-13T08:57:25.348Z,19.20
2023-02-13T08:58:25.339Z,20.40
2023-02-13T08:59:25.313Z,20.20
2023-02-13T09:00:25.351Z,20.20
2023-02-13T09:01:25.289Z,19.60
2023-02-13T09:02:25.328Z,19.30
2023-02-13T09:03:25.200Z,18.30
2023-02-13T09:04:25.185Z,18.80
2023-02-13T09:05:25.154Z,18.70
2023-02-13T09:06:25.132Z,18.10
2023-02-13T09:07:25.093Z,18.50
2023-02-13T09:08:25.079Z,16.90
2023-02-13T09:09:25.046Z,18.10
2023-02-13T09:10:25.078Z,17.80
2023-02-13T09:11:25.015Z,18.00
2023-02-13T09:12:24.983Z,18.50
2023-02-13T09:13:24.955Z,18.80
2023-02-13T09:14:25.135Z,17.80
2023-02-13T09:15:24.903Z,17.80
2023-02-13T09:16:25.052Z,17.80
2023-02-13T09:17:24.849Z,16.50
2023-02-13T09:18:24.826Z,16.50
2023-02-13T09:19:24.808Z,16.60
2023-02-13T09:20:24.795Z,17.80
2023-02-13T09:21:24.747Z,16.10
2023-02-13T09:22:24.729Z,17.30
2023-02-13T09:23:24.697Z,17.00
2023-02-13T09:24:24.686Z,16.00
2023-02-13T09:25:24.647Z,16.90
2023-02-13T09:26:24.638Z,17.00
2023-02-13T09:27:24.600Z,16.70
2023-02-13T09:28:24.699Z,17.00
2023-02-13T09:29:24.542Z,17.40
2023-02-13T09:30:24.691Z,15.70
2023-02-13T09:31:24.691Z,16.60
2023-02-13T09:32:24.506Z,16.70
2023-02-13T09:33:24.448Z,16.10
2023-02-13T09:34:24.422Z,16.60
2023-02-13T09:35:24.399Z,15.60
2023-02-13T09:36:24.382Z,15.60
2023-02-13T09:37:24.346Z,16.20
2023-02-13T09:38:24.338Z,16.50
2023-02-13T09:39:24.295Z,16.80
2023-02-13T09:40:24.276Z,15.90
2023-02-13T09:41:24.255Z,15.90
2023-02-13T09:42:24.257Z,15.30
2023-02-13T09:43:24.196Z,16.60
2023-02-13T09:44:24.171Z,16.50
2023-02-13T09:45:24.144Z,15.30
2023-02-13T09:46:24.140Z,16.40
2023-02-13T09:47:24.100Z,16.80
2023-02-13T09:48:24.120Z,15.70
2023-02-13T09:49:24.041Z,15.20
2023-02-13T09:50:24.037Z,16.80
2023-02-13T09:51:23.994Z,15.70
2023-02-13T09:52:23.967Z,15.90
2023-02-13T09:53:23.942Z,16.50
2023-02-13T09:54:23.917Z,16.50
2023-02-13T09:55:23.886Z,15.40
2023-02-13T09:56:23.863Z,16.60
2023-02-13T09:57:23.836Z,15.30
2023-02-13T09:58:23.810Z,15.20
2023-02-13T09:59:23.787Z,15.80
2023-02-13T10:00:23.761Z,14.40
2023-02-13T10:01:23.818Z,15.60
2023-02-13T10:02:23.707Z,15.10
2023-02-13T10:03:23.685Z,16.60
2023-02-13T10:04:23.689Z,15.70
2023-02-13T10:05:23.731Z,16.60
2023-02-13T10:06:23.607Z,16.00
2023-02-13T10:07:23.590Z,15.50
2023-02-13T10:08:23.554Z,15.10
2023-02-13T10:09:23.531Z,14.00
2023-02-13T10:10:23.506Z,14.30
2023-02-13T10:11:23.493Z,14.80
2023-02-13T10:12:23.459Z,14.10
2023-02-13T10:13:23.438Z,15.20
2023-02-13T10:14:23.407Z,14.60
2023-02-13T10:15:23.378Z,14.70
2023-02-13T10:16:23.579Z,14.20
2023-02-13T10:17:23.329Z,14.40
2023-02-13T10:18:23.311Z,15.00
2023-02-13T10:19:23.282Z,15.20
2023-02-13T10:20:23.277Z,14.60
2023-02-13T10:21:23.229Z,15.00
2023-02-13T10:22:23.311Z,15.80
2023-02-13T10:23:23.181Z,14.50
2023-02-13T10:24:23.157Z,15.00
2023-02-13T10:25:23.132Z,14.80
2023-02-13T10:26:23.110Z,15.50
2023-02-13T10:27:23.080Z,14.90
2023-02-13T10:28:23.128Z,14.90
2023-02-13T10:29:23.028Z,15.10
2023-02-13T10:30:23.009Z,15.80
2023-02-13T10:31:23.137Z,14.20
2023-02-13T10:32:23.129Z,15.40
2023-02-13T10:33:22.939Z,14.80
2023-02-13T10:34:22.906Z,15.30
2023-02-13T10:35:22.891Z,15.00
2023-02-13T10:36:22.888Z,15.20
2023-02-13T10:37:22.831Z,16.00
2023-02-13T10:38:22.808Z,16.10
2023-02-13T10:39:22.773Z,16.40
2023-02-13T10:40:22.754Z,15.70
2023-02-13T10:41:22.725Z,14.50
2023-02-13T10:42:22.825Z,15.70
2023-02-13T10:43:22.680Z,15.30
2023-02-13T10:44:22.658Z,15.80
2023-02-13T10:45:22.630Z,15.30
2023-02-13T10:46:22.691Z,15.60
2023-02-13T10:47:22.593Z,16.10
2023-02-13T10:48:22.563Z,14.90
2023-02-13T10:49:22.525Z,15.60
2023-02-13T10:50:22.506Z,16.00
2023-02-13T10:51:22.479Z,15.50
2023-02-13T10:52:22.480Z,16.50
2023-02-13T10:53:22.447Z,15.60
2023-02-13T10:54:22.403Z,16.40
2023-02-13T10:55:22.378Z,15.90
2023-02-13T10:56:22.362Z,15.60
2023-02-13T10:57:22.329Z,16.00
2023-02-13T10:58:22.311Z,15.80
2023-02-13T10:59:22.283Z,16.10
2023-02-13T11:00:22.258Z,16.00
2023-02-13T11:01:22.291Z,15.00
2023-02-13T11:02:22.211Z,16.20
2023-02-13T11:03:22.202Z,14.70
2023-02-13T11:04:22.204Z,15.80
2023-02-13T11:05:22.138Z,15.60
2023-02-13T11:06:22.102Z,15.30
2023-02-13T11:07:22.072Z,15.40
2023-02-13T11:08:22.070Z,15.60
2023-02-13T11:09:22.021Z,16.40
2023-02-13T11:10:22.051Z,15.70
2023-02-13T11:11:21.970Z,17.40
2023-02-13T11:12:21.953Z,16.00
2023-02-13T11:13:21.923Z,15.90
2023-02-13T11:14:21.902Z,15.50
2023-02-13T11:15:21.871Z,15.60
2023-02-13T11:16:21.896Z,15.90
2023-02-13T11:17:21.818Z,17.50
2023-02-13T11:18:21.811Z,15.20
2023-02-13T11:19:21.785Z,15.40
2023-02-13T11:20:21.748Z,16.10
2023-02-13T11:21:21.723Z,16.10
2023-02-13T11:22:21.702Z,15.60
2023-02-13T11:23:21.670Z,16.20
2023-02-13T11:24:21.723Z,15.90
2023-02-13T11:25:21.617Z,16.10
2023-02-13T11:26:21.596Z,15.20
2023-02-13T11:27:22.242Z,15.30
2023-02-13T11:28:21.614Z,15.70
2023-02-13T11:29:21.521Z,15.90
2023-02-13T11:30:21.498Z,16.10
2023-02-13T11:31:21.587Z,15.80
2023-02-13T11:32:21.544Z,16.50
2023-02-13T11:33:21.418Z,16.60
2023-02-13T11:34:21.395Z,15.70
2023-02-13T11:35:21.392Z,16.00
2023-02-13T11:36:21.342Z,16.00
2023-02-13T11:37:21.320Z,16.30
2023-02-13T11:38:21.292Z,16.60
2023-02-13T11:39:21.272Z,16.20
2023-02-13T11:40:21.275Z,15.60
2023-02-13T11:41:21.227Z,16.80
2023-02-13T11:42:21.195Z,14.90
2023-02-13T11:43:21.179Z,15.00
2023-02-13T11:44:21.144Z,15.40
2023-02-13T11:45:21.119Z,15.90
2023-02-13T11:46:21.163Z,15.50
2023-02-13T11:47:21.071Z,15.10
2023-02-13T11:48:21.045Z,14.70
2023-02-13T11:49:21.027Z,14.50
2023-02-13T11:50:21.000Z,15.00
2023-02-13T11:51:20.973Z,14.80
2023-02-13T11:52:20.942Z,15.50
2023-02-13T11:53:20.927Z,14.60
2023-02-13T11:54:20.900Z,14.80
2023-02-13T11:55:20.875Z,14.90
2023-02-13T11:56:20.862Z,14.80
2023-02-13T11:57:20.833Z,14.40
2023-02-13T11:58:20.918Z,14.70
2023-02-13T11:59:20.777Z,14.50
2023-02-13T12:00:20.753Z,15.10
2023-02-13T12:01:20.735Z,14.80
2023-02-13T12:02:20.833Z,14.20
2023-02-13T12:03:20.764Z,14.20
2023-02-13T12:04:20.674Z,14.00
2023-02-13T12:05:20.643Z,15.10
2023-02-13T12:06:20.610Z,13.60
2023-02-13T12:07:20.593Z,13.70
2023-02-13T12:08:20.559Z,14.70
2023-02-13T12:09:20.536Z,13.60
2023-02-13T12:10:20.504Z,14.50
2023-02-13T12:11:20.488Z,13.60
2023-02-13T12:12:20.485Z,14.30
2023-02-13T12:13:20.442Z,15.00
2023-02-13T12:14:20.402Z,14.70
2023-02-13T12:15:20.389Z,15.30
2023-02-13T12:16:20.415Z,14.30
2023-02-13T12:17:30.868Z,14.80
2023-02-13T12:18:20.310Z,15.60
2023-02-13T12:19:20.291Z,14.70
2023-02-13T12:20:20.262Z,14.50
2023-02-13T12:21:20.236Z,14.10
2023-02-13T12:22:20.216Z,14.80
2023-02-13T12:23:20.185Z,14.20
2023-02-13T12:24:20.165Z,15.10
2023-02-13T12:25:20.140Z,15.00
2023-02-13T12:26:20.116Z,15.10
2023-02-13T12:27:20.093Z,15.30
2023-02-13T12:28:20.171Z,14.80
2023-02-13T12:29:20.087Z,14.30
2023-02-13T12:30:20.017Z,15.00
2023-02-13T12:31:20.005Z,15.40
2023-02-13T12:32:19.964Z,14.80
2023-02-13T12:33:19.940Z,14.80
2023-02-13T12:34:19.916Z,15.00
2023-02-13T12:35:19.889Z,14.90
2023-02-13T12:36:19.870Z,14.30
2023-02-13T12:37:19.844Z,14.50
2023-02-13T12:38:19.814Z,14.30
2023-02-13T12:39:19.794Z,15.00
2023-02-13T12:40:19.770Z,14.40
2023-02-13T12:41:19.740Z,15.10
2023-02-13T12:42:19.733Z,14.70
2023-02-13T12:43:19.708Z,14.80
2023-02-13T12:44:19.703Z,14.30
2023-02-13T12:45:19.644Z,13.70
2023-02-13T12:46:19.616Z,13.60
2023-02-13T12:47:19.589Z,13.30
2023-02-13T12:48:19.570Z,14.20
2023-02-13T12:49:19.541Z,12.10
2023-02-13T12:50:19.514Z,12.60
2023-02-13T12:51:19.506Z,12.80
2023-02-13T12:52:19.469Z,12.20